Time;durP1;ratioP1;P1;durP2;ratioP2;P2;SDS_P1;SDS_P2;PMS_P1;PMS_P2;Temp;Humidity;BMP_temperature;BMP_pressure;BME280_temperature;BME280_humidity;BME280_pressure;Samples;Min_cycle;Max_cycle;Signal;HPM_P1;HPM_P2
2022/07/12 00:02:26;;;;;;;3.72;0.80;;;;;;;;;;4996963;28;20223;-63
2022/07/12 00:04:52;;;;;;;4.00;1.00;;;;;;;;;;4997593;28;20034;-64
2022/07/12 00:07:20;;;;;;;2.60;0.77;;;;;;;;;;4994936;28;20096;-64
2022/07/12 00:09:46;;;;;;;3.85;0.73;;;;;;;;;;4996472;28;20044;-64
2022/07/12 00:12:13;;;;;;;5.03;0.85;;;;;;;;;;4997054;28;20478;-63
2022/07/12 00:14:40;;;;;;;4.40;0.90;;;;;;;;;;4995303;28;20121;-63
2022/07/12 00:17:07;;;;;;;5.07;0.98;;;;;;;;;;4998176;28;20060;-63
2022/07/12 00:19:33;;;;;;;4.95;0.90;;;;;;;;;;4997053;28;20044;-64
2022/07/12 00:22:00;;;;;;;2.83;0.90;;;;;;;;;;4993892;28;20502;-63
2022/07/12 00:24:27;;;;;;;3.65;0.98;;;;;;;;;;4996929;28;20041;-62
2022/07/12 00:26:53;;;;;;;3.10;0.77;;;;;;;;;;4999138;28;20124;-62
2022/07/12 00:29:20;;;;;;;3.15;1.00;;;;;;;;;;4990293;28;20042;-62
2022/07/12 00:31:46;;;;;;;3.65;0.77;;;;;;;;;;4997556;28;20037;-62
2022/07/12 00:34:13;;;;;;;4.57;1.00;;;;;;;;;;4998408;28;20076;-62
2022/07/12 00:36:40;;;;;;;2.78;0.88;;;;;;;;;;5002476;28;20052;-63
2022/07/12 00:39:06;;;;;;;4.30;1.30;;;;;;;;;;4998101;28;20026;-61
2022/07/12 00:41:33;;;;;;;4.40;0.75;;;;;;;;;;4997901;28;20407;-63
2022/07/12 00:44:00;;;;;;;4.72;0.85;;;;;;;;;;4997383;28;20029;-62
2022/07/12 00:46:27;;;;;;;3.67;0.80;;;;;;;;;;4996356;28;20033;-64
2022/07/12 00:48:54;;;;;;;3.58;0.80;;;;;;;;;;4996586;28;20091;-62
2022/07/12 00:51:21;;;;;;;4.05;0.90;;;;;;;;;;4997704;28;20483;-63
2022/07/12 00:53:48;;;;;;;4.75;0.90;;;;;;;;;;4996528;28;20050;-62
2022/07/12 00:56:17;;;;;;;3.72;1.10;;;;;;;;;;4996925;28;20054;-62
2022/07/12 00:58:45;;;;;;;3.40;1.00;;;;;;;;;;4996112;28;20077;-62
2022/07/12 01:01:11;;;;;;;4.93;1.27;;;;;;;;;;4997228;28;20050;-64
2022/07/12 01:03:38;;;;;;;6.22;1.08;;;;;;;;;;4994898;28;20042;-63
2022/07/12 01:06:06;;;;;;;3.47;1.05;;;;;;;;;;4996380;28;21350;-62
2022/07/12 01:08:34;;;;;;;5.80;0.90;;;;;;;;;;4994595;28;20045;-61
2022/07/12 01:11:01;;;;;;;3.03;0.88;;;;;;;;;;4996459;28;20041;-62
2022/07/12 01:13:27;;;;;;;3.55;0.95;;;;;;;;;;4996211;28;20038;-62
2022/07/12 01:15:54;;;;;;;3.95;0.80;;;;;;;;;;4996150;28;20137;-62
2022/07/12 01:18:21;;;;;;;2.67;0.95;;;;;;;;;;4996398;28;20135;-64
2022/07/12 01:20:48;;;;;;;5.00;0.90;;;;;;;;;;4996862;28;20129;-62
2022/07/12 01:23:14;;;;;;;3.13;0.90;;;;;;;;;;4988362;28;20878;-62
2022/07/12 01:25:41;;;;;;;3.10;0.93;;;;;;;;;;4987412;28;20443;-62
2022/07/12 01:28:08;;;;;;;4.15;1.00;;;;;;;;;;4996406;28;20070;-62
2022/07/12 01:30:34;;;;;;;2.80;0.90;;;;;;;;;;4996096;28;20041;-62
2022/07/12 01:33:01;;;;;;;3.78;1.15;;;;;;;;;;4996836;28;20050;-61
2022/07/12 01:35:29;;;;;;;5.47;0.95;;;;;;;;;;4996273;28;20399;-61
2022/07/12 01:37:56;;;;;;;4.95;0.98;;;;;;;;;;4996167;28;20042;-61
2022/07/12 01:40:23;;;;;;;3.53;0.93;;;;;;;;;;4997300;28;20156;-62
2022/07/12 01:42:50;;;;;;;4.88;1.00;;;;;;;;;;4997854;28;20347;-62
2022/07/12 01:45:17;;;;;;;2.30;0.80;;;;;;;;;;4999008;28;20080;-62
2022/07/12 01:47:44;;;;;;;3.10;0.90;;;;;;;;;;4998175;28;20382;-63
2022/07/12 01:50:11;;;;;;;3.83;1.00;;;;;;;;;;5001039;28;20467;-62
2022/07/12 01:52:39;;;;;;;4.00;1.00;;;;;;;;;;4999478;28;20483;-62
2022/07/12 01:55:06;;;;;;;4.78;1.05;;;;;;;;;;5001223;28;20108;-62
2022/07/12 01:57:34;;;;;;;3.88;1.13;;;;;;;;;;4999810;28;20384;-62
2022/07/12 02:00:06;;;;;;;8.07;1.40;;;;;;;;;;5000882;28;20831;-62
2022/07/12 02:02:32;;;;;;;2.83;1.00;;;;;;;;;;5000550;28;20042;-62
2022/07/12 02:05:02;;;;;;;4.55;1.10;;;;;;;;;;4999868;28;20065;-62
2022/07/12 02:07:29;;;;;;;2.80;1.00;;;;;;;;;;4999302;28;20164;-62
2022/07/12 02:09:56;;;;;;;3.35;1.10;;;;;;;;;;5000767;28;20034;-62
2022/07/12 02:12:23;;;;;;;4.50;1.02;;;;;;;;;;5000928;28;20042;-62
2022/07/12 02:14:50;;;;;;;3.65;1.27;;;;;;;;;;5002178;28;20117;-62
2022/07/12 02:17:17;;;;;;;5.40;0.90;;;;;;;;;;5000251;28;20081;-62
2022/07/12 02:19:44;;;;;;;6.35;1.17;;;;;;;;;;4998912;28;20073;-62
2022/07/12 02:22:11;;;;;;;3.78;1.17;;;;;;;;;;5000806;28;20096;-61
2022/07/12 02:24:38;;;;;;;4.07;1.00;;;;;;;;;;4998998;28;20453;-61
2022/07/12 02:27:05;;;;;;;3.20;0.98;;;;;;;;;;4998524;28;20041;-61
2022/07/12 02:29:32;;;;;;;4.05;1.00;;;;;;;;;;4998328;28;20045;-61
2022/07/12 02:31:58;;;;;;;2.83;1.00;;;;;;;;;;4998442;28;20034;-61
2022/07/12 02:34:25;;;;;;;4.03;1.10;;;;;;;;;;4998519;28;20038;-62
2022/07/12 02:36:52;;;;;;;2.90;1.10;;;;;;;;;;4997814;28;20168;-61
2022/07/12 02:39:18;;;;;;;3.20;1.05;;;;;;;;;;4998210;28;20041;-61
2022/07/12 02:41:45;;;;;;;4.85;1.30;;;;;;;;;;4998534;28;20165;-61
2022/07/12 02:44:11;;;;;;;7.00;1.23;;;;;;;;;;4998055;28;20095;-61
2022/07/12 02:46:38;;;;;;;3.50;1.17;;;;;;;;;;4998426;28;20139;-61
2022/07/12 02:49:05;;;;;;;3.58;1.08;;;;;;;;;;4998730;28;20151;-63
2022/07/12 02:51:31;;;;;;;6.85;1.10;;;;;;;;;;4997213;28;20045;-60
2022/07/12 02:53:59;;;;;;;4.30;1.13;;;;;;;;;;4998985;28;22241;-63
2022/07/12 02:56:26;;;;;;;3.45;0.90;;;;;;;;;;4998474;28;20145;-64
2022/07/12 02:58:53;;;;;;;3.75;1.33;;;;;;;;;;4997466;28;20049;-64
2022/07/12 03:01:19;;;;;;;3.58;1.20;;;;;;;;;;4989438;28;20049;-64
2022/07/12 03:03:46;;;;;;;3.55;0.90;;;;;;;;;;4997706;28;20702;-64
2022/07/12 03:06:13;;;;;;;5.20;1.10;;;;;;;;;;4997730;28;20128;-64
2022/07/12 03:08:39;;;;;;;3.72;1.00;;;;;;;;;;4998065;28;20065;-63
2022/07/12 03:11:06;;;;;;;3.70;1.13;;;;;;;;;;4999442;28;20034;-63
2022/07/12 03:13:33;;;;;;;4.32;1.20;;;;;;;;;;4998268;28;20050;-63
2022/07/12 03:15:59;;;;;;;3.22;1.00;;;;;;;;;;4998315;28;20125;-64
2022/07/12 03:18:26;;;;;;;3.83;0.98;;;;;;;;;;4998280;28;20112;-63
2022/07/12 03:20:53;;;;;;;5.45;1.42;;;;;;;;;;5000962;28;20040;-63
2022/07/12 03:23:19;;;;;;;5.68;1.48;;;;;;;;;;4999290;28;20041;-63
2022/07/12 03:25:46;;;;;;;5.13;1.13;;;;;;;;;;4996750;28;20030;-64
2022/07/12 03:28:13;;;;;;;4.20;1.00;;;;;;;;;;4997558;28;20113;-64
2022/07/12 03:30:39;;;;;;;4.22;1.17;;;;;;;;;;4996662;28;20050;-64
2022/07/12 03:33:06;;;;;;;5.13;1.33;;;;;;;;;;4997804;28;20679;-64
2022/07/12 03:35:38;;;;;;;3.95;1.30;;;;;;;;;;4996124;28;20065;-64
2022/07/12 03:38:05;;;;;;;7.90;1.45;;;;;;;;;;4996884;28;20123;-64
2022/07/12 03:40:34;;;;;;;3.75;1.30;;;;;;;;;;4997943;28;20893;-64
2022/07/12 03:43:01;;;;;;;3.80;1.33;;;;;;;;;;4997443;28;21493;-63
2022/07/12 03:45:27;;;;;;;5.80;1.52;;;;;;;;;;4997671;28;20038;-63
2022/07/12 03:47:54;;;;;;;4.50;1.38;;;;;;;;;;4997812;28;20458;-63
2022/07/12 03:50:21;;;;;;;3.92;1.05;;;;;;;;;;4997839;28;20042;-64
2022/07/12 03:52:48;;;;;;;3.42;1.02;;;;;;;;;;4997252;28;20042;-63
2022/07/12 03:55:15;;;;;;;6.88;1.58;;;;;;;;;;4996855;28;20050;-64
2022/07/12 03:57:42;;;;;;;5.35;1.88;;;;;;;;;;4997125;28;20128;-58
2022/07/12 04:00:12;;;;;;;5.25;1.58;;;;;;;;;;4997976;28;20058;-58
2022/07/12 04:02:39;;;;;;;7.55;1.63;;;;;;;;;;4997505;28;20053;-59
2022/07/12 04:05:07;;;;;;;6.53;1.50;;;;;;;;;;4997645;28;20057;-59
2022/07/12 04:07:33;;;;;;;5.20;1.50;;;;;;;;;;4995837;28;20042;-57
2022/07/12 04:10:00;;;;;;;4.68;1.40;;;;;;;;;;4996673;28;20113;-60
2022/07/12 04:12:27;;;;;;;4.22;1.33;;;;;;;;;;4995334;28;20045;-58
2022/07/12 04:14:53;;;;;;;7.22;1.55;;;;;;;;;;4997746;28;20046;-60
2022/07/12 04:17:20;;;;;;;6.70;1.50;;;;;;;;;;4996383;28;21087;-57
2022/07/12 04:19:47;;;;;;;3.85;1.20;;;;;;;;;;4997293;28;20057;-60
2022/07/12 04:22:13;;;;;;;4.78;1.10;;;;;;;;;;4997484;28;20913;-63
2022/07/12 04:24:40;;;;;;;6.80;1.40;;;;;;;;;;4994804;28;20112;-61
2022/07/12 04:27:07;;;;;;;6.93;1.48;;;;;;;;;;4997449;28;20099;-64
2022/07/12 04:29:33;;;;;;;13.43;6.90;;;;;;;;;;4997905;28;20045;-64
2022/07/12 04:32:00;;;;;;;6.55;2.17;;;;;;;;;;4997939;28;20046;-64
2022/07/12 04:34:27;;;;;;;6.03;1.63;;;;;;;;;;4993829;28;20038;-64
2022/07/12 04:36:56;;;;;;;5.57;1.60;;;;;;;;;;4994424;28;20108;-64
2022/07/12 04:39:23;;;;;;;5.15;1.45;;;;;;;;;;4995049;28;20110;-64
2022/07/12 04:41:50;;;;;;;5.22;1.42;;;;;;;;;;4997655;28;20037;-64
2022/07/12 04:44:17;;;;;;;6.40;1.98;;;;;;;;;;4995845;28;20099;-64
2022/07/12 04:46:43;;;;;;;4.85;1.27;;;;;;;;;;4996306;28;20517;-64
2022/07/12 04:49:10;;;;;;;7.65;1.30;;;;;;;;;;4997373;28;20042;-63
2022/07/12 04:51:37;;;;;;;4.95;1.63;;;;;;;;;;4996591;28;20038;-66
2022/07/12 04:54:03;;;;;;;6.05;1.20;;;;;;;;;;4996649;28;20050;-63
2022/07/12 04:56:30;;;;;;;6.25;1.27;;;;;;;;;;4995524;28;20045;-64
2022/07/12 04:58:57;;;;;;;5.78;1.75;;;;;;;;;;4997233;28;20042;-64
2022/07/12 05:01:25;;;;;;;4.20;1.70;;;;;;;;;;4996122;28;20054;-64
2022/07/12 05:03:51;;;;;;;6.30;1.50;;;;;;;;;;4996539;28;20033;-64
2022/07/12 05:06:18;;;;;;;4.07;1.55;;;;;;;;;;4996107;28;20541;-64
2022/07/12 05:08:45;;;;;;;3.63;1.42;;;;;;;;;;5001658;28;20046;-64
2022/07/12 05:11:11;;;;;;;5.22;1.67;;;;;;;;;;4996100;28;20042;-64
2022/07/12 05:13:38;;;;;;;6.32;1.48;;;;;;;;;;4995412;28;20041;-64
2022/07/12 05:16:06;;;;;;;5.90;1.45;;;;;;;;;;4997245;28;20104;-64
2022/07/12 05:18:33;;;;;;;7.95;1.83;;;;;;;;;;4995629;28;20034;-64
2022/07/12 05:20:59;;;;;;;6.60;1.52;;;;;;;;;;5003385;28;20053;-64
2022/07/12 05:23:27;;;;;;;4.13;1.27;;;;;;;;;;4997306;28;20080;-64
2022/07/12 05:25:53;;;;;;;5.22;1.40;;;;;;;;;;4999852;28;20066;-63
2022/07/12 05:28:20;;;;;;;9.07;1.70;;;;;;;;;;4999836;28;20063;-64
2022/07/12 05:30:47;;;;;;;4.47;1.83;;;;;;;;;;5000197;28;20038;-64
2022/07/12 05:33:13;;;;;;;7.57;1.65;;;;;;;;;;4999690;28;20084;-64
2022/07/12 05:35:40;;;;;;;4.75;1.80;;;;;;;;;;4998877;28;20132;-64
2022/07/12 05:38:07;;;;;;;10.68;2.00;;;;;;;;;;4998638;28;20042;-64
2022/07/12 05:40:34;;;;;;;4.97;1.70;;;;;;;;;;4999085;28;20045;-64
2022/07/12 05:43:00;;;;;;;17.35;2.00;;;;;;;;;;4999844;28;21002;-64
2022/07/12 05:45:27;;;;;;;7.32;1.90;;;;;;;;;;4999682;28;20070;-64
2022/07/12 05:47:53;;;;;;;8.30;1.70;;;;;;;;;;4999878;28;20030;-64
2022/07/12 05:50:20;;;;;;;6.10;2.13;;;;;;;;;;4999192;28;20034;-64
2022/07/12 05:55:32;;;;;;;6.63;1.80;;;;;;;;;;4999140;28;20053;-64
2022/07/12 05:57:59;;;;;;;6.07;2.35;;;;;;;;;;4999618;28;20042;-64
2022/07/12 06:00:25;;;;;;;11.77;2.13;;;;;;;;;;4998707;28;20507;-64
2022/07/12 06:02:52;;;;;;;5.45;2.10;;;;;;;;;;4999628;28;20806;-64
2022/07/12 06:05:19;;;;;;;8.38;2.47;;;;;;;;;;5000440;28;20558;-64
2022/07/12 06:07:45;;;;;;;5.68;2.03;;;;;;;;;;4990986;28;20193;-63
2022/07/12 06:10:12;;;;;;;11.13;2.45;;;;;;;;;;5000821;28;20045;-63
2022/07/12 06:12:39;;;;;;;11.07;2.40;;;;;;;;;;5000406;28;21136;-64
2022/07/12 06:15:06;;;;;;;10.00;2.25;;;;;;;;;;4998995;28;20052;-63
2022/07/12 06:17:33;;;;;;;6.88;2.00;;;;;;;;;;4998659;28;20076;-64
2022/07/12 06:20:00;;;;;;;11.30;2.40;;;;;;;;;;4999858;28;20108;-64
2022/07/12 06:22:27;;;;;;;5.95;1.95;;;;;;;;;;4998919;28;20042;-64
2022/07/12 06:24:53;;;;;;;7.25;2.00;;;;;;;;;;4998723;28;20042;-63
2022/07/12 06:27:20;;;;;;;8.88;2.10;;;;;;;;;;4999094;28;20129;-63
2022/07/12 06:29:48;;;;;;;9.82;2.03;;;;;;;;;;4998566;28;20048;-64
2022/07/12 06:32:15;;;;;;;8.32;2.40;;;;;;;;;;4999365;28;20691;-64
2022/07/12 06:34:42;;;;;;;5.38;1.90;;;;;;;;;;4994924;28;21098;-64
2022/07/12 06:37:09;;;;;;;6.80;2.00;;;;;;;;;;4998717;28;20783;-64
2022/07/12 06:39:36;;;;;;;6.32;2.28;;;;;;;;;;4998269;28;20045;-65
2022/07/12 06:42:06;;;;;;;6.65;2.22;;;;;;;;;;4999917;28;20057;-65
2022/07/12 06:44:33;;;;;;;7.72;2.40;;;;;;;;;;4998219;28;20045;-64
2022/07/12 06:47:00;;;;;;;5.78;2.05;;;;;;;;;;4998862;28;21383;-64
2022/07/12 06:49:27;;;;;;;6.25;2.20;;;;;;;;;;4998521;28;20030;-65
2022/07/12 06:51:53;;;;;;;11.05;2.53;;;;;;;;;;4999576;28;20030;-64
2022/07/12 06:54:20;;;;;;;4.93;2.42;;;;;;;;;;4997438;28;20041;-64
2022/07/12 06:56:47;;;;;;;6.57;2.38;;;;;;;;;;4998957;28;20050;-64
2022/07/12 06:59:14;;;;;;;11.60;2.78;;;;;;;;;;4999467;28;20038;-63
2022/07/12 07:01:40;;;;;;;5.28;2.40;;;;;;;;;;5000455;28;20048;-64
2022/07/12 07:04:07;;;;;;;9.20;2.80;;;;;;;;;;5014073;28;20041;-65
2022/07/12 07:06:34;;;;;;;7.95;2.88;;;;;;;;;;5001410;28;20038;-64
2022/07/12 07:09:00;;;;;;;13.02;3.28;;;;;;;;;;5003772;28;20046;-64
2022/07/12 07:11:27;;;;;;;12.70;4.28;;;;;;;;;;4999183;28;20033;-64
2022/07/12 07:13:55;;;;;;;9.15;3.60;;;;;;;;;;5001343;28;20501;-64
2022/07/12 07:16:24;;;;;;;8.00;3.50;;;;;;;;;;4999333;28;20193;-64
2022/07/12 07:18:50;;;;;;;7.82;3.20;;;;;;;;;;4999224;28;20790;-64
2022/07/12 07:21:17;;;;;;;7.25;3.05;;;;;;;;;;4997856;28;20046;-64
2022/07/12 07:23:43;;;;;;;6.18;2.70;;;;;;;;;;4998146;28;20256;-64
2022/07/12 07:26:10;;;;;;;6.13;2.75;;;;;;;;;;4998855;28;20122;-64
2022/07/12 07:30:52;;;;;;;5.93;2.30;;;;;;;;;;4999093;28;20136;-64
2022/07/12 07:31:23;;;;;;;5.07;2.40;;;;;;;;;;5001157;28;20110;-64
2022/07/12 07:33:50;;;;;;;9.73;2.70;;;;;;;;;;5001607;28;20580;-65
2022/07/12 07:36:16;;;;;;;8.32;2.30;;;;;;;;;;5002272;28;20379;-64
2022/07/12 07:38:43;;;;;;;6.97;2.42;;;;;;;;;;4999675;28;20060;-64
2022/07/12 07:41:10;;;;;;;4.30;2.00;;;;;;;;;;4999879;28;20136;-64
2022/07/12 07:43:36;;;;;;;5.35;2.05;;;;;;;;;;5000001;28;20133;-64
2022/07/12 07:46:03;;;;;;;9.20;2.58;;;;;;;;;;5000071;28;20829;-64
2022/07/12 07:48:30;;;;;;;6.35;2.15;;;;;;;;;;4997757;28;20069;-64
2022/07/12 07:50:56;;;;;;;7.78;2.30;;;;;;;;;;4999326;28;20038;-64
2022/07/12 07:53:25;;;;;;;8.07;2.30;;;;;;;;;;4996908;28;20057;-64
2022/07/12 07:55:51;;;;;;;5.75;1.85;;;;;;;;;;4998776;28;20053;-63
2022/07/12 07:58:20;;;;;;;3.65;1.58;;;;;;;;;;4998349;28;20127;-63
2022/07/12 08:00:48;;;;;;;4.88;1.80;;;;;;;;;;4997912;28;20092;-64
2022/07/12 08:03:14;;;;;;;5.72;2.20;;;;;;;;;;4998077;28;20045;-63
2022/07/12 08:05:41;;;;;;;6.55;2.08;;;;;;;;;;4997755;28;20046;-64
2022/07/12 08:08:08;;;;;;;6.18;1.65;;;;;;;;;;4998887;28;20124;-63
2022/07/12 08:10:34;;;;;;;5.80;1.85;;;;;;;;;;4996818;28;20049;-63
2022/07/12 08:13:01;;;;;;;4.03;1.63;;;;;;;;;;4998863;28;20856;-63
2022/07/12 08:15:27;;;;;;;6.00;1.58;;;;;;;;;;4997540;28;20477;-63
2022/07/12 08:17:54;;;;;;;3.42;1.65;;;;;;;;;;4997614;28;20124;-64
2022/07/12 08:20:21;;;;;;;6.78;1.52;;;;;;;;;;4998705;28;20454;-63
2022/07/12 08:22:48;;;;;;;6.80;1.95;;;;;;;;;;4998683;28;20040;-63
2022/07/12 08:25:15;;;;;;;6.53;1.77;;;;;;;;;;4997214;28;20080;-63
2022/07/12 08:27:42;;;;;;;5.10;1.38;;;;;;;;;;4996785;28;20231;-65
2022/07/12 08:30:09;;;;;;;5.20;1.40;;;;;;;;;;4998127;28;20092;-63
2022/07/12 08:32:35;;;;;;;12.20;1.58;;;;;;;;;;4988086;28;20045;-63
2022/07/12 08:35:02;;;;;;;6.70;1.60;;;;;;;;;;4996868;28;20091;-62
2022/07/12 08:37:29;;;;;;;4.38;1.50;;;;;;;;;;4995917;28;20580;-62
2022/07/12 08:39:55;;;;;;;3.67;1.30;;;;;;;;;;4997208;28;20498;-64
2022/07/12 08:42:22;;;;;;;4.15;1.30;;;;;;;;;;4995581;28;20044;-63
2022/07/12 08:44:58;;;;;;;9.98;1.90;;;;;;;;;;4996114;28;20084;-63
2022/07/12 08:47:25;;;;;;;8.13;1.80;;;;;;;;;;4996502;28;20040;-63
2022/07/12 08:50:10;;;;;;;9.70;2.10;;;;;;;;;;4996369;28;20061;-64
2022/07/12 08:52:47;;;;;;;8.63;1.88;;;;;;;;;;4996072;28;20392;-64
2022/07/12 08:55:20;;;;;;;5.65;1.38;;;;;;;;;;4996444;28;20065;-64
2022/07/12 08:57:47;;;;;;;5.15;1.10;;;;;;;;;;4986095;28;20041;-64
2022/07/12 09:00:14;;;;;;;5.13;1.70;;;;;;;;;;4996249;28;20574;-64
2022/07/12 09:02:48;;;;;;;4.38;1.38;;;;;;;;;;4996734;28;20054;-64
2022/07/12 09:05:16;;;;;;;3.60;1.13;;;;;;;;;;4997321;28;20120;-64
2022/07/12 09:07:43;;;;;;;6.07;1.45;;;;;;;;;;4995751;28;20111;-64
2022/07/12 09:10:11;;;;;;;3.75;1.17;;;;;;;;;;4996599;28;20665;-64
2022/07/12 09:12:38;;;;;;;3.33;1.10;;;;;;;;;;4996722;28;20042;-64
2022/07/12 09:15:21;;;;;;;4.50;1.30;;;;;;;;;;4996080;28;20038;-64
2022/07/12 09:17:59;;;;;;;3.47;1.30;;;;;;;;;;4996475;28;20079;-64
2022/07/12 09:20:33;;;;;;;4.22;1.30;;;;;;;;;;4995361;28;20049;-65
2022/07/12 09:23:07;;;;;;;4.78;1.27;;;;;;;;;;4997280;28;20080;-64
2022/07/12 09:25:34;;;;;;;3.55;1.27;;;;;;;;;;4995711;28;20100;-64
2022/07/12 09:28:03;;;;;;;5.07;1.40;;;;;;;;;;4995930;28;20037;-64
2022/07/12 09:30:30;;;;;;;4.65;1.42;;;;;;;;;;4994839;28;20049;-64
2022/07/12 09:36:07;;;;;;;3.95;1.13;;;;;;;;;;4995301;28;20077;-64
2022/07/12 09:38:35;;;;;;;4.18;1.08;;;;;;;;;;4995146;28;20439;-64
2022/07/12 09:41:02;;;;;;;4.93;1.17;;;;;;;;;;4995185;28;20030;-64
2022/07/12 09:43:29;;;;;;;3.05;1.10;;;;;;;;;;4994056;28;20092;-64
2022/07/12 09:45:56;;;;;;;4.30;1.20;;;;;;;;;;4996806;28;20045;-64
2022/07/12 09:48:23;;;;;;;3.67;1.20;;;;;;;;;;4994415;28;20085;-65
2022/07/12 09:50:51;;;;;;;4.03;1.00;;;;;;;;;;4996984;28;20314;-64
2022/07/12 09:53:21;;;;;;;5.18;1.20;;;;;;;;;;4990269;28;20111;-64
2022/07/12 09:55:49;;;;;;;3.78;1.10;;;;;;;;;;4995037;28;20053;-64
2022/07/12 09:58:20;;;;;;;3.25;1.10;;;;;;;;;;4985754;28;20078;-65
2022/07/12 10:00:47;;;;;;;8.32;1.38;;;;;;;;;;4995498;28;20041;-65
2022/07/12 10:03:13;;;;;;;5.82;1.08;;;;;;;;;;4995690;28;20069;-64
2022/07/12 10:05:42;;;;;;;3.95;1.25;;;;;;;;;;5002780;28;20486;-64
2022/07/12 10:08:09;;;;;;;5.68;1.30;;;;;;;;;;4996841;28;20034;-64
2022/07/12 10:10:36;;;;;;;5.38;0.98;;;;;;;;;;4998658;28;20557;-64
2022/07/12 10:13:03;;;;;;;3.13;1.10;;;;;;;;;;4999989;28;20124;-64
2022/07/12 10:15:31;;;;;;;3.80;0.98;;;;;;;;;;5000137;28;20494;-64
2022/07/12 10:18:01;;;;;;;4.03;1.10;;;;;;;;;;4999632;28;20029;-64
2022/07/12 10:20:28;;;;;;;6.03;1.45;;;;;;;;;;4999007;28;20053;-64
2022/07/12 10:22:55;;;;;;;6.88;1.50;;;;;;;;;;5000218;28;20045;-64
2022/07/12 10:25:42;;;;;;;3.83;1.25;;;;;;;;;;4998225;28;20042;-64
2022/07/12 10:28:08;;;;;;;4.03;1.05;;;;;;;;;;4999109;28;20042;-64
2022/07/12 10:30:45;;;;;;;3.80;1.45;;;;;;;;;;5006630;28;20448;-64
2022/07/12 10:33:22;;;;;;;3.75;1.40;;;;;;;;;;5000353;28;20066;-64
2022/07/12 10:36:02;;;;;;;7.75;1.20;;;;;;;;;;4999240;28;20056;-64
2022/07/12 10:38:29;;;;;;;4.47;1.40;;;;;;;;;;4997517;28;20095;-64
2022/07/12 10:40:55;;;;;;;2.95;1.17;;;;;;;;;;4998394;28;20048;-64
2022/07/12 10:46:14;;;;;;;3.28;1.00;;;;;;;;;;4999061;28;20137;-64
2022/07/12 10:48:42;;;;;;;3.33;1.00;;;;;;;;;;4998975;28;20129;-64
2022/07/12 10:51:16;;;;;;;4.22;1.00;;;;;;;;;;4998026;28;20048;-64
2022/07/12 10:53:45;;;;;;;4.13;1.20;;;;;;;;;;4998410;28;20498;-65
2022/07/12 10:56:22;;;;;;;4.25;1.13;;;;;;;;;;4998309;28;20046;-65
2022/07/12 10:58:56;;;;;;;3.83;1.00;;;;;;;;;;4999107;28;20050;-65
2022/07/12 11:01:23;;;;;;;2.40;0.80;;;;;;;;;;4997554;28;20046;-64
2022/07/12 11:03:51;;;;;;;3.03;1.00;;;;;;;;;;4997244;28;20395;-64
2022/07/12 11:06:19;;;;;;;4.78;1.00;;;;;;;;;;4999081;28;20688;-64
2022/07/12 11:08:50;;;;;;;3.55;0.95;;;;;;;;;;4998038;28;20702;-64
2022/07/12 11:11:16;;;;;;;5.18;1.30;;;;;;;;;;4996992;28;20061;-64
2022/07/12 11:13:43;;;;;;;3.17;1.10;;;;;;;;;;4998844;28;20554;-64
2022/07/12 11:16:10;;;;;;;3.63;1.00;;;;;;;;;;4998656;28;20127;-64
2022/07/12 11:18:37;;;;;;;3.53;1.02;;;;;;;;;;4999073;28;20034;-64
2022/07/12 11:21:04;;;;;;;2.65;0.82;;;;;;;;;;4997938;28;21616;-64
2022/07/12 11:23:31;;;;;;;3.42;1.00;;;;;;;;;;4998280;28;20727;-64
2022/07/12 11:25:59;;;;;;;2.45;0.82;;;;;;;;;;4998701;28;20068;-64
2022/07/12 11:28:27;;;;;;;2.83;0.93;;;;;;;;;;4997941;28;20042;-64
2022/07/12 11:30:55;;;;;;;3.08;1.00;;;;;;;;;;4997705;28;21008;-64
2022/07/12 11:33:33;;;;;;;3.55;1.20;;;;;;;;;;4996588;28;20391;-64
2022/07/12 11:36:01;;;;;;;2.90;0.80;;;;;;;;;;4997837;28;20407;-64
2022/07/12 11:38:28;;;;;;;6.25;1.33;;;;;;;;;;4997245;28;20079;-64
2022/07/12 11:40:59;;;;;;;3.75;0.90;;;;;;;;;;4997373;28;20076;-64
2022/07/12 11:43:26;;;;;;;6.70;1.17;;;;;;;;;;4997380;28;20046;-64
2022/07/12 11:45:53;;;;;;;6.03;1.17;;;;;;;;;;4998250;28;20041;-64
2022/07/12 11:48:20;;;;;;;6.15;1.33;;;;;;;;;;4996931;28;20125;-64
2022/07/12 11:50:54;;;;;;;3.35;1.17;;;;;;;;;;4996409;28;20042;-64
2022/07/12 11:53:21;;;;;;;7.07;1.00;;;;;;;;;;4996351;28;20511;-64
2022/07/12 11:55:49;;;;;;;3.58;0.80;;;;;;;;;;4996488;28;20050;-64
2022/07/12 11:58:16;;;;;;;4.32;1.00;;;;;;;;;;4997696;28;20157;-64
2022/07/12 12:00:44;;;;;;;2.40;0.80;;;;;;;;;;4997126;28;20477;-65
2022/07/12 12:03:11;;;;;;;6.10;1.30;;;;;;;;;;4998794;28;20133;-64
2022/07/12 12:05:38;;;;;;;3.58;1.00;;;;;;;;;;4998292;28;20053;-60
2022/07/12 12:08:06;;;;;;;5.78;1.10;;;;;;;;;;4999051;28;20053;-60
2022/07/12 12:10:33;;;;;;;3.88;1.15;;;;;;;;;;4996814;28;20129;-59
2022/07/12 12:13:00;;;;;;;3.47;1.30;;;;;;;;;;4998503;28;20034;-63
2022/07/12 12:15:29;;;;;;;6.88;1.48;;;;;;;;;;4996510;28;20407;-62
2022/07/12 12:17:57;;;;;;;2.38;0.80;;;;;;;;;;4996462;28;20073;-60
2022/07/12 12:20:25;;;;;;;3.15;0.90;;;;;;;;;;4995099;28;20041;-60
2022/07/12 12:22:55;;;;;;;3.00;1.02;;;;;;;;;;4996419;28;20046;-58
2022/07/12 12:25:23;;;;;;;3.45;1.02;;;;;;;;;;4996211;28;20558;-59
2022/07/12 12:27:51;;;;;;;4.57;1.10;;;;;;;;;;4994883;28;20041;-59
2022/07/12 12:30:18;;;;;;;2.80;1.08;;;;;;;;;;4995926;28;20038;-59
2022/07/12 12:32:49;;;;;;;3.75;0.98;;;;;;;;;;4995596;28;20372;-60
2022/07/12 12:35:17;;;;;;;2.97;1.00;;;;;;;;;;4996546;28;20486;-59
2022/07/12 12:37:54;;;;;;;3.08;1.00;;;;;;;;;;4996825;28;20502;-59
2022/07/12 12:40:21;;;;;;;3.70;1.00;;;;;;;;;;4997085;28;20053;-58
2022/07/12 12:42:48;;;;;;;6.28;1.20;;;;;;;;;;4996928;28;20037;-59
2022/07/12 12:45:22;;;;;;;2.85;1.00;;;;;;;;;;4997701;28;20061;-60
2022/07/12 12:47:53;;;;;;;3.83;1.20;;;;;;;;;;4997443;28;20145;-60
2022/07/12 12:50:36;;;;;;;3.47;1.00;;;;;;;;;;4997545;28;20041;-59
2022/07/12 12:53:13;;;;;;;3.03;0.98;;;;;;;;;;4993503;28;20687;-59
2022/07/12 12:55:40;;;;;;;3.58;0.90;;;;;;;;;;4994538;28;20403;-59
2022/07/12 12:58:07;;;;;;;4.75;1.15;;;;;;;;;;4996535;28;20200;-59
2022/07/12 13:00:35;;;;;;;3.58;1.00;;;;;;;;;;4996663;28;20084;-59
2022/07/12 13:03:02;;;;;;;3.40;1.00;;;;;;;;;;4997320;28;20040;-59
2022/07/12 13:05:29;;;;;;;4.55;1.00;;;;;;;;;;4997387;28;20084;-61
2022/07/12 13:07:56;;;;;;;4.05;1.23;;;;;;;;;;4997045;28;20108;-58
2022/07/12 13:10:23;;;;;;;3.03;1.00;;;;;;;;;;4997136;28;20157;-59
2022/07/12 13:12:50;;;;;;;3.33;1.08;;;;;;;;;;4996924;28;20041;-59
2022/07/12 13:15:17;;;;;;;2.60;0.90;;;;;;;;;;4997496;28;20872;-59
2022/07/12 13:17:44;;;;;;;4.25;1.02;;;;;;;;;;4997092;28;20038;-59
2022/07/12 13:20:12;;;;;;;3.30;0.93;;;;;;;;;;4996741;28;20050;-60
2022/07/12 13:22:40;;;;;;;5.03;0.93;;;;;;;;;;4996763;28;20034;-59
2022/07/12 13:25:07;;;;;;;3.05;0.80;;;;;;;;;;4996502;28;20499;-58
2022/07/12 13:27:34;;;;;;;3.05;0.95;;;;;;;;;;4996187;28;20038;-59
2022/07/12 13:30:01;;;;;;;5.35;1.00;;;;;;;;;;4996690;28;20038;-59
2022/07/12 13:32:28;;;;;;;2.70;1.00;;;;;;;;;;4995957;28;20054;-62
2022/07/12 13:34:54;;;;;;;4.13;0.80;;;;;;;;;;4990970;28;20034;-60
2022/07/12 13:37:21;;;;;;;3.30;0.95;;;;;;;;;;4996087;28;20057;-59
2022/07/12 13:42:33;;;;;;;3.35;1.10;;;;;;;;;;4996191;28;20053;-59
2022/07/12 13:45:00;;;;;;;5.05;0.88;;;;;;;;;;5000446;28;20046;-59
2022/07/12 13:47:27;;;;;;;4.65;1.00;;;;;;;;;;5000049;28;20030;-62
2022/07/12 13:49:54;;;;;;;2.90;0.90;;;;;;;;;;4999088;28;20042;-63
2022/07/12 13:52:20;;;;;;;2.97;0.90;;;;;;;;;;4998654;28;20076;-63
2022/07/12 13:54:47;;;;;;;5.53;1.00;;;;;;;;;;5016933;28;20061;-64
2022/07/12 13:57:14;;;;;;;4.80;2.75;;;;;;;;;;5000643;28;20060;-63
2022/07/12 13:59:41;;;;;;;4.15;1.27;;;;;;;;;;4999681;28;20046;-63
2022/07/12 14:02:08;;;;;;;3.30;1.10;;;;;;;;;;5000361;28;20030;-63
2022/07/12 14:04:34;;;;;;;2.90;0.90;;;;;;;;;;4998194;28;20041;-65
2022/07/12 14:07:02;;;;;;;3.40;1.10;;;;;;;;;;5000172;28;20041;-63
2022/07/12 14:09:28;;;;;;;3.40;0.80;;;;;;;;;;4998163;28;20042;-63
2022/07/12 14:11:55;;;;;;;3.60;1.00;;;;;;;;;;4999117;28;20343;-63
2022/07/12 14:17:07;;;;;;;3.50;0.90;;;;;;;;;;4997517;28;20578;-63
2022/07/12 14:19:33;;;;;;;3.08;1.17;;;;;;;;;;4997623;28;20115;-63
2022/07/12 14:22:00;;;;;;;2.75;0.90;;;;;;;;;;4998632;28;20068;-64
2022/07/12 14:24:27;;;;;;;4.43;1.02;;;;;;;;;;4998500;28;20030;-62
2022/07/12 14:26:53;;;;;;;5.32;1.08;;;;;;;;;;4998822;28;20041;-63
2022/07/12 14:29:20;;;;;;;11.52;1.40;;;;;;;;;;4998062;28;20074;-63
2022/07/12 14:31:47;;;;;;;8.73;1.05;;;;;;;;;;4999916;28;20073;-63
2022/07/12 14:34:13;;;;;;;2.67;0.80;;;;;;;;;;4999508;28;20034;-63
2022/07/12 14:36:40;;;;;;;3.70;1.00;;;;;;;;;;4998594;28;21182;-64
2022/07/12 14:39:07;;;;;;;3.38;1.00;;;;;;;;;;5006063;28;20064;-64
2022/07/12 14:41:33;;;;;;;4.03;0.90;;;;;;;;;;5001870;28;20349;-63
2022/07/12 14:44:01;;;;;;;4.70;1.10;;;;;;;;;;4998963;28;20052;-63
2022/07/12 14:46:27;;;;;;;5.63;0.93;;;;;;;;;;4998543;28;20042;-63
2022/07/12 14:48:54;;;;;;;2.65;0.90;;;;;;;;;;4998079;28;20053;-63
2022/07/12 14:51:21;;;;;;;3.30;0.90;;;;;;;;;;4997221;28;20080;-64
2022/07/12 14:53:48;;;;;;;3.78;0.90;;;;;;;;;;4999640;28;20076;-64
2022/07/12 14:56:14;;;;;;;2.75;0.85;;;;;;;;;;4998049;28;20054;-64
2022/07/12 14:58:41;;;;;;;2.70;0.88;;;;;;;;;;5013446;28;20120;-64
2022/07/12 15:01:08;;;;;;;3.47;1.02;;;;;;;;;;4999908;28;20048;-64